createdAt,value
2023-02-24T00:00:39.027Z,1002.51
2023-02-24T00:01:38.997Z,1002.42
2023-02-24T00:02:39.022Z,1002.47
2023-02-24T00:03:39.008Z,1002.41
2023-02-24T00:04:39.297Z,1002.43
2023-02-24T00:05:38.948Z,1002.43
2023-02-24T00:06:38.938Z,1002.31
2023-02-24T00:07:38.935Z,1002.37
2023-02-24T00:08:38.904Z,1002.41
2023-02-24T00:09:39.292Z,1002.40
2023-02-24T00:10:38.873Z,1002.37
2023-02-24T00:11:38.854Z,1002.33
2023-02-24T00:12:38.854Z,1002.33
2023-02-24T00:13:38.832Z,1002.30
2023-02-24T00:14:39.006Z,1002.28
2023-02-24T00:15:38.981Z,1002.26
2023-02-24T00:16:38.953Z,1002.20
2023-02-24T00:17:38.782Z,1002.22
2023-02-24T00:18:38.781Z,1002.18
2023-02-24T00:19:38.762Z,1002.19
2023-02-24T00:20:38.923Z,1002.13
2023-02-24T00:21:39.103Z,1002.11
2023-02-24T00:22:38.727Z,1002.19
2023-02-24T00:23:38.704Z,1002.22
2023-02-24T00:24:38.694Z,1002.18
2023-02-24T00:25:38.677Z,1002.18
2023-02-24T00:26:38.701Z,1002.20
2023-02-24T00:27:38.646Z,1002.24
2023-02-24T00:28:38.649Z,1002.16
2023-02-24T00:29:38.628Z,1002.16
2023-02-24T00:30:38.620Z,1002.12
2023-02-24T00:31:38.830Z,1002.11
2023-02-24T00:32:38.698Z,1002.06
2023-02-24T00:33:38.593Z,1002.06
2023-02-24T00:34:38.585Z,1002.10
2023-02-24T00:35:38.560Z,1002.05
2023-02-24T00:36:38.546Z,1002.04
2023-02-24T00:37:38.726Z,1002.08
2023-02-24T00:38:38.513Z,1001.99
2023-02-24T00:39:38.505Z,1002.00
2023-02-24T00:40:38.495Z,1001.94
2023-02-24T00:41:38.481Z,1002.00
2023-02-24T00:42:38.642Z,1002.02
2023-02-24T00:43:38.452Z,1001.96
2023-02-24T00:44:38.452Z,1001.95
2023-02-24T00:45:38.426Z,1001.97
2023-02-24T00:46:38.490Z,1001.95
2023-02-24T00:47:38.415Z,1001.91
2023-02-24T00:48:38.398Z,1001.94
2023-02-24T00:49:38.564Z,1001.89
2023-02-24T00:50:38.382Z,1001.87
2023-02-24T00:51:38.345Z,1001.82
2023-02-24T00:52:38.342Z,1001.85
2023-02-24T00:53:38.324Z,1001.80
2023-02-24T00:54:38.493Z,1001.73
2023-02-24T00:55:38.334Z,1001.76
2023-02-24T00:56:38.293Z,1001.82
2023-02-24T00:57:38.262Z,1001.76
2023-02-24T00:58:38.292Z,1001.78
2023-02-24T00:59:38.276Z,1001.80
2023-02-24T01:00:38.243Z,1001.73
2023-02-24T01:01:38.346Z,1001.82
2023-02-24T01:02:38.216Z,1001.83
2023-02-24T01:03:38.229Z,1001.76
2023-02-24T01:04:38.201Z,1001.77
2023-02-24T01:05:38.176Z,1001.74
2023-02-24T01:06:38.160Z,1001.72
2023-02-24T01:07:38.142Z,1001.69
2023-02-24T01:08:38.168Z,1001.75
2023-02-24T01:09:38.110Z,1001.76
2023-02-24T01:10:38.122Z,1001.72
2023-02-24T01:11:38.239Z,1001.73
2023-02-24T01:12:38.150Z,1001.77
2023-02-24T01:13:38.257Z,1001.73
2023-02-24T01:14:38.058Z,1001.75
2023-02-24T01:15:38.035Z,1001.76
2023-02-24T01:16:38.041Z,1001.72
2023-02-24T01:17:38.059Z,1001.68
2023-02-24T01:18:38.023Z,1001.70
2023-02-24T01:19:37.988Z,1001.68
2023-02-24T01:20:38.000Z,1001.64
2023-02-24T01:21:37.978Z,1001.63
2023-02-24T01:22:37.969Z,1001.67
2023-02-24T01:23:37.958Z,1001.60
2023-02-24T01:24:37.945Z,1001.55
2023-02-24T01:25:37.905Z,1001.56
2023-02-24T01:26:38.005Z,1001.55
2023-02-24T01:27:37.874Z,1001.55
2023-02-24T01:28:37.874Z,1001.48
2023-02-24T01:29:37.874Z,1001.48
2023-02-24T01:30:37.864Z,1001.54
2023-02-24T01:31:38.214Z,1001.50
2023-02-24T01:32:38.133Z,1001.56
2023-02-24T01:33:37.830Z,1001.50
2023-02-24T01:34:37.792Z,1001.47
2023-02-24T01:35:37.786Z,1001.44
2023-02-24T01:36:37.944Z,1001.46
2023-02-24T01:37:37.752Z,1001.43
2023-02-24T01:38:37.743Z,1001.43
2023-02-24T01:39:37.775Z,1001.43
2023-02-24T01:40:37.736Z,1001.41
2023-02-24T01:41:37.890Z,1001.42
2023-02-24T01:42:37.696Z,1001.44
2023-02-24T01:43:37.674Z,1001.40
2023-02-24T01:44:37.675Z,1001.41
2023-02-24T01:45:37.669Z,1001.38
2023-02-24T01:46:37.886Z,1001.48
2023-02-24T01:47:37.640Z,1001.42
2023-02-24T01:48:37.625Z,1001.39
2023-02-24T01:49:37.604Z,1001.45
2023-02-24T01:50:37.594Z,1001.48
2023-02-24T01:51:37.751Z,1001.46
2023-02-24T01:52:37.584Z,1001.44
2023-02-24T01:53:37.554Z,1001.46
2023-02-24T01:54:37.545Z,1001.41
2023-02-24T01:55:37.544Z,1001.37
2023-02-24T01:56:37.514Z,1001.42
2023-02-24T01:57:37.676Z,1001.30
2023-02-24T01:58:37.502Z,1001.34
2023-02-24T01:59:37.481Z,1001.42
2023-02-24T02:00:37.559Z,1001.42
2023-02-24T02:01:37.525Z,1001.38
2023-02-24T02:02:37.557Z,1001.41
2023-02-24T02:03:37.603Z,1001.36
2023-02-24T02:04:37.412Z,1001.35
2023-02-24T02:05:37.403Z,1001.33
2023-02-24T02:06:37.393Z,1001.31
2023-02-24T02:07:37.382Z,1001.35
2023-02-24T02:08:37.544Z,1001.27
2023-02-24T02:09:37.341Z,1001.31
2023-02-24T02:10:37.532Z,1001.19
2023-02-24T02:11:37.322Z,1001.24
2023-02-24T02:12:37.359Z,1001.21
2023-02-24T02:13:37.324Z,1001.16
2023-02-24T02:14:37.302Z,1001.13
2023-02-24T02:15:37.448Z,1001.12
2023-02-24T02:16:37.341Z,1001.07
2023-02-24T02:17:37.268Z,1001.03
2023-02-24T02:18:37.242Z,1001.03
2023-02-24T02:19:37.220Z,1000.98
2023-02-24T02:20:37.224Z,1000.97
2023-02-24T02:21:37.217Z,1000.89
2023-02-24T02:22:37.388Z,1000.92
2023-02-24T02:23:37.338Z,1000.96
2023-02-24T02:24:37.156Z,1000.91
2023-02-24T02:25:37.157Z,1000.83
2023-02-24T02:26:37.146Z,1000.88
2023-02-24T02:27:37.104Z,1000.77
2023-02-24T02:28:37.298Z,1000.83
2023-02-24T02:29:37.270Z,1000.85
2023-02-24T02:30:37.146Z,1000.85
2023-02-24T02:31:37.257Z,1000.82
2023-02-24T02:32:37.174Z,1000.77
2023-02-24T02:33:37.044Z,1000.75
2023-02-24T02:34:37.209Z,1000.76
2023-02-24T02:35:37.201Z,1000.72
2023-02-24T02:36:37.006Z,1000.68
2023-02-24T02:37:36.990Z,1000.68
2023-02-24T02:38:36.979Z,1000.72
2023-02-24T02:39:36.968Z,1000.62
2023-02-24T02:40:37.160Z,1000.60
2023-02-24T02:41:36.949Z,1000.63
2023-02-24T02:42:36.919Z,1000.55
2023-02-24T02:43:36.914Z,1000.64
2023-02-24T02:44:36.903Z,1000.59
2023-02-24T02:45:37.112Z,1000.55
2023-02-24T02:46:37.065Z,1000.56
2023-02-24T02:47:36.861Z,1000.52
2023-02-24T02:48:36.841Z,1000.62
2023-02-24T02:49:36.841Z,1000.52
2023-02-24T02:50:36.823Z,1000.51
2023-02-24T02:51:36.809Z,1000.46
2023-02-24T02:52:36.958Z,1000.43
2023-02-24T02:53:36.801Z,1000.46
2023-02-24T02:54:36.766Z,1000.47
2023-02-24T02:55:36.755Z,1000.46
2023-02-24T02:56:36.738Z,1000.42
2023-02-24T02:57:36.905Z,1000.41
2023-02-24T02:58:36.720Z,1000.33
2023-02-24T02:59:36.705Z,1000.33
2023-02-24T03:00:36.703Z,1000.38
2023-02-24T03:01:36.685Z,1000.30
2023-02-24T03:02:36.674Z,1000.29
2023-02-24T03:03:36.643Z,1000.33
2023-02-24T03:04:36.666Z,1000.24
2023-02-24T03:05:36.620Z,1000.23
2023-02-24T03:06:36.626Z,1000.20
2023-02-24T03:07:36.774Z,1000.19
2023-02-24T03:08:36.602Z,1000.18
2023-02-24T03:09:36.588Z,1000.25
2023-02-24T03:10:36.562Z,1000.17
2023-02-24T03:11:36.542Z,1000.15
2023-02-24T03:12:36.540Z,1000.22
2023-02-24T03:13:36.519Z,1000.22
2023-02-24T03:14:36.529Z,1000.21
2023-02-24T03:15:36.491Z,1000.26
2023-02-24T03:16:36.478Z,1000.16
2023-02-24T03:17:36.469Z,1000.21
2023-02-24T03:18:36.643Z,1000.21
2023-02-24T03:19:36.444Z,1000.22
2023-02-24T03:20:36.428Z,1000.13
2023-02-24T03:21:36.408Z,1000.15
2023-02-24T03:22:36.399Z,1000.08
2023-02-24T03:23:36.559Z,1000.12
2023-02-24T03:24:36.380Z,1000.15
2023-02-24T03:25:36.365Z,1000.11
2023-02-24T03:26:36.372Z,1000.08
2023-02-24T03:27:36.339Z,1000.08
2023-02-24T03:28:36.340Z,1000.08
2023-02-24T03:29:36.309Z,1000.07
2023-02-24T03:30:36.388Z,1000.11
2023-02-24T03:31:36.586Z,1000.14
2023-02-24T03:32:36.753Z,1000.09
2023-02-24T03:33:36.256Z,1000.12
2023-02-24T03:34:36.245Z,1000.12
2023-02-24T03:35:36.239Z,1000.13
2023-02-24T03:36:36.235Z,1000.08
2023-02-24T03:37:36.400Z,1000.10
2023-02-24T03:38:36.383Z,1000.12
2023-02-24T03:39:36.175Z,1000.05
2023-02-24T03:40:36.286Z,1000.02
2023-02-24T03:41:36.155Z,1000.00
2023-02-24T03:42:36.144Z,1000.02
2023-02-24T03:43:36.125Z,999.98
2023-02-24T03:44:36.364Z,999.99
2023-02-24T03:45:36.115Z,1000.04
2023-02-24T03:46:36.097Z,999.99
2023-02-24T03:47:36.082Z,1000.01
2023-02-24T03:48:36.064Z,999.97
2023-02-24T03:49:36.244Z,1000.00
2023-02-24T03:50:36.051Z,999.99
2023-02-24T03:51:36.025Z,999.97
2023-02-24T03:52:36.048Z,1000.01
2023-02-24T03:53:36.005Z,999.95
2023-02-24T03:54:36.174Z,999.85
2023-02-24T03:55:35.982Z,999.87
2023-02-24T03:56:35.973Z,999.88
2023-02-24T03:57:35.951Z,999.86
2023-02-24T03:58:35.944Z,999.88
2023-02-24T03:59:36.112Z,999.83
2023-02-24T04:00:35.910Z,999.83
2023-02-24T04:01:35.908Z,999.84
2023-02-24T04:02:35.942Z,999.91
2023-02-24T04:03:35.877Z,999.93
2023-02-24T04:04:36.077Z,999.91
2023-02-24T04:05:36.019Z,999.88
2023-02-24T04:06:35.849Z,999.90
2023-02-24T04:07:35.817Z,999.82
2023-02-24T04:08:35.813Z,999.87
2023-02-24T04:09:35.802Z,999.85
2023-02-24T04:10:36.167Z,999.88
2023-02-24T04:11:35.767Z,999.89
2023-02-24T04:12:35.982Z,999.82
2023-02-24T04:13:35.739Z,999.87
2023-02-24T04:14:35.746Z,999.82
2023-02-24T04:15:35.750Z,999.80
2023-02-24T04:16:35.714Z,999.76
2023-02-24T04:17:35.726Z,999.85
2023-02-24T04:18:35.867Z,999.85
2023-02-24T04:19:35.666Z,999.80
2023-02-24T04:20:35.677Z,999.79
2023-02-24T04:21:35.645Z,999.81
2023-02-24T04:22:35.624Z,999.74
2023-02-24T04:23:35.793Z,999.80
2023-02-24T04:24:35.604Z,999.76
2023-02-24T04:25:35.585Z,999.76
2023-02-24T04:26:36.579Z,999.79
2023-02-24T04:27:35.572Z,999.80
2023-02-24T04:28:35.725Z,999.65
2023-02-24T04:29:35.576Z,999.77
2023-02-24T04:30:35.544Z,999.72
2023-02-24T04:31:35.652Z,999.68
2023-02-24T04:32:35.605Z,999.65
2023-02-24T04:33:35.676Z,999.70
2023-02-24T04:34:35.484Z,999.71
2023-02-24T04:35:35.644Z,999.74
2023-02-24T04:36:35.468Z,999.66
2023-02-24T04:37:35.435Z,999.64
2023-02-24T04:38:35.436Z,999.65
2023-02-24T04:39:35.427Z,999.61
2023-02-24T04:40:35.583Z,999.59
2023-02-24T04:41:35.412Z,999.65
2023-02-24T04:42:35.379Z,999.58
2023-02-24T04:43:35.373Z,999.56
2023-02-24T04:44:35.357Z,999.61
2023-02-24T04:45:35.520Z,999.64
2023-02-24T04:46:35.357Z,999.62
2023-02-24T04:47:35.320Z,999.59
2023-02-24T04:48:35.303Z,999.63
2023-02-24T04:49:35.284Z,999.56
2023-02-24T04:50:35.546Z,999.60
2023-02-24T04:51:35.261Z,999.52
2023-02-24T04:52:35.258Z,999.52
2023-02-24T04:53:35.238Z,999.50
2023-02-24T04:54:35.235Z,999.50
2023-02-24T04:55:35.395Z,999.51
2023-02-24T04:56:35.198Z,999.47
2023-02-24T04:57:35.200Z,999.48
2023-02-24T04:58:35.174Z,999.51
2023-02-24T04:59:35.155Z,999.50
2023-02-24T05:00:35.329Z,999.49
2023-02-24T05:01:35.326Z,999.46
2023-02-24T05:02:35.131Z,999.40
2023-02-24T05:03:35.116Z,999.44
2023-02-24T05:04:35.135Z,999.44
2023-02-24T05:05:35.103Z,999.46
2023-02-24T05:06:35.090Z,999.43
2023-02-24T05:07:35.057Z,999.44
2023-02-24T05:08:35.048Z,999.49
2023-02-24T05:09:35.034Z,999.44
2023-02-24T05:10:35.027Z,999.41
2023-02-24T05:11:35.025Z,999.42
2023-02-24T05:12:34.996Z,999.39
2023-02-24T05:13:34.976Z,999.43
2023-02-24T05:14:34.991Z,999.38
2023-02-24T05:15:34.960Z,999.32
2023-02-24T05:16:34.991Z,999.36
2023-02-24T05:17:34.936Z,999.27
2023-02-24T05:18:34.942Z,999.27
2023-02-24T05:19:34.910Z,999.29
2023-02-24T05:20:34.893Z,999.26
2023-02-24T05:21:35.043Z,999.26
2023-02-24T05:22:34.873Z,999.31
2023-02-24T05:23:35.037Z,999.25
2023-02-24T05:24:34.884Z,999.26
2023-02-24T05:25:34.825Z,999.24
2023-02-24T05:26:34.824Z,999.29
2023-02-24T05:27:34.805Z,999.25
2023-02-24T05:28:34.984Z,999.18
2023-02-24T05:29:34.785Z,999.22
2023-02-24T05:30:34.823Z,999.26
2023-02-24T05:31:34.860Z,999.26
2023-02-24T05:32:35.076Z,999.25
2023-02-24T05:33:34.727Z,999.18
2023-02-24T05:34:34.735Z,999.10
2023-02-24T05:35:34.703Z,999.10
2023-02-24T05:36:34.693Z,999.21
2023-02-24T05:37:34.671Z,999.14
2023-02-24T05:38:34.861Z,999.05
2023-02-24T05:39:34.650Z,999.01
2023-02-24T05:40:34.650Z,999.04
2023-02-24T05:41:34.621Z,998.99
2023-02-24T05:42:34.619Z,998.95
2023-02-24T05:43:34.779Z,998.99
2023-02-24T05:44:34.604Z,998.93
2023-02-24T05:45:34.565Z,998.91
2023-02-24T05:46:34.622Z,998.92
2023-02-24T05:47:34.588Z,998.87
2023-02-24T05:48:34.757Z,998.93
2023-02-24T05:49:34.524Z,998.89
2023-02-24T05:50:34.507Z,998.91
2023-02-24T05:51:34.503Z,998.87
2023-02-24T05:52:34.484Z,998.86
2023-02-24T05:53:34.661Z,998.87
2023-02-24T05:54:34.470Z,998.86
2023-02-24T05:55:34.447Z,998.85
2023-02-24T05:56:34.432Z,998.81
2023-02-24T05:57:34.424Z,998.83
2023-02-24T05:58:34.404Z,998.81
2023-02-24T05:59:34.412Z,998.88
2023-02-24T06:00:34.380Z,998.75
2023-02-24T06:01:34.374Z,998.74
2023-02-24T06:02:34.352Z,998.77
2023-02-24T06:03:34.342Z,998.66
2023-02-24T06:04:34.345Z,998.73
2023-02-24T06:05:34.322Z,998.69
2023-02-24T06:06:34.305Z,998.68
2023-02-24T06:07:34.298Z,998.63
2023-02-24T06:08:34.287Z,998.59
2023-02-24T06:09:34.288Z,998.65
2023-02-24T06:10:34.441Z,998.62
2023-02-24T06:11:34.341Z,998.66
2023-02-24T06:12:34.233Z,998.61
2023-02-24T06:13:34.224Z,998.68
2023-02-24T06:14:34.421Z,998.59
2023-02-24T06:15:34.370Z,998.67
2023-02-24T06:16:34.212Z,998.59
2023-02-24T06:17:34.174Z,998.54
2023-02-24T06:18:34.156Z,998.59
2023-02-24T06:19:34.138Z,998.58
2023-02-24T06:20:34.318Z,998.62
2023-02-24T06:21:34.119Z,998.55
2023-02-24T06:22:34.127Z,998.53
2023-02-24T06:23:34.117Z,998.62
2023-02-24T06:24:34.069Z,998.58
2023-02-24T06:25:34.237Z,998.51
2023-02-24T06:26:34.066Z,998.54
2023-02-24T06:27:34.045Z,998.53
2023-02-24T06:28:34.026Z,998.55
2023-02-24T06:29:34.019Z,998.52
2023-02-24T06:30:34.039Z,998.51
2023-02-24T06:31:34.185Z,998.45
2023-02-24T06:32:34.047Z,998.42
2023-02-24T06:33:34.137Z,998.36
2023-02-24T06:34:33.948Z,998.42
2023-02-24T06:35:34.685Z,998.36
2023-02-24T06:36:33.937Z,998.41
2023-02-24T06:37:33.917Z,998.33
2023-02-24T06:38:33.917Z,998.36
2023-02-24T06:39:36.429Z,998.34
2023-02-24T06:40:33.887Z,998.34
2023-02-24T06:41:33.869Z,998.31
2023-02-24T06:42:33.865Z,998.31
2023-02-24T06:43:34.728Z,998.31
2023-02-24T06:44:33.850Z,998.32
2023-02-24T06:45:33.816Z,998.34
2023-02-24T06:46:33.807Z,998.31
2023-02-24T06:47:33.787Z,998.28
2023-02-24T06:48:33.802Z,998.32
2023-02-24T06:49:33.781Z,998.29
2023-02-24T06:50:33.770Z,998.25
2023-02-24T06:51:33.746Z,998.32
2023-02-24T06:52:33.726Z,998.30
2023-02-24T06:53:33.896Z,998.28
2023-02-24T06:54:33.696Z,998.34
2023-02-24T06:55:33.701Z,998.28
2023-02-24T06:56:33.668Z,998.28
2023-02-24T06:57:33.664Z,998.27
2023-02-24T06:58:33.816Z,998.32
2023-02-24T06:59:33.645Z,998.25
2023-02-24T07:00:33.644Z,998.26
2023-02-24T07:01:33.656Z,998.30
2023-02-24T07:02:33.603Z,998.33
2023-02-24T07:03:33.600Z,998.38
2023-02-24T07:04:33.600Z,998.30
2023-02-24T07:05:33.583Z,998.31
2023-02-24T07:06:33.553Z,998.23
2023-02-24T07:07:33.541Z,998.26
2023-02-24T07:08:33.540Z,998.18
2023-02-24T07:09:33.532Z,998.15
2023-02-24T07:10:33.676Z,998.15
2023-02-24T07:11:33.507Z,998.17
2023-02-24T07:12:33.472Z,998.15
2023-02-24T07:13:33.467Z,998.24
2023-02-24T07:14:33.449Z,998.23
2023-02-24T07:15:33.451Z,998.17
2023-02-24T07:16:33.457Z,998.16
2023-02-24T07:17:33.400Z,998.19
2023-02-24T07:18:33.395Z,998.21
2023-02-24T07:19:33.392Z,998.26
2023-02-24T07:20:33.566Z,998.19
2023-02-24T07:21:33.349Z,998.22
2023-02-24T07:22:33.343Z,998.19
2023-02-24T07:23:33.334Z,998.15
2023-02-24T07:24:33.639Z,998.08
2023-02-24T07:25:33.476Z,998.11
2023-02-24T07:26:33.306Z,998.14
2023-02-24T07:27:33.281Z,998.11
2023-02-24T07:28:33.266Z,998.10
2023-02-24T07:29:33.271Z,998.08
2023-02-24T07:30:33.355Z,998.03
2023-02-24T07:31:33.565Z,998.08
2023-02-24T07:32:33.342Z,998.03
2023-02-24T07:33:33.196Z,997.99
2023-02-24T07:34:33.196Z,997.92
2023-02-24T07:35:33.165Z,997.90
2023-02-24T07:36:33.185Z,997.91
2023-02-24T07:37:33.323Z,997.89
2023-02-24T07:38:33.148Z,997.89
2023-02-24T07:39:33.119Z,997.86
2023-02-24T07:40:33.110Z,997.91
2023-02-24T07:41:33.270Z,997.85
2023-02-24T07:42:33.262Z,997.83
2023-02-24T07:43:33.088Z,997.83
2023-02-24T07:44:33.097Z,997.84
2023-02-24T07:45:33.099Z,997.80
2023-02-24T07:46:33.087Z,997.72
2023-02-24T07:47:33.195Z,997.75
2023-02-24T07:48:33.016Z,997.72
2023-02-24T07:49:32.988Z,997.74
2023-02-24T07:50:33.102Z,997.69
2023-02-24T07:51:32.976Z,997.71
2023-02-24T07:52:32.975Z,997.61
2023-02-24T07:53:33.116Z,997.64
2023-02-24T07:54:32.936Z,997.65
2023-02-24T07:55:32.922Z,997.62
2023-02-24T07:56:32.933Z,997.58
2023-02-24T07:57:32.903Z,997.54
2023-02-24T07:58:33.065Z,997.57
2023-02-24T07:59:32.882Z,997.65
2023-02-24T08:00:32.852Z,997.63
2023-02-24T08:01:32.842Z,997.59
2023-02-24T08:02:32.864Z,997.62
2023-02-24T08:03:32.805Z,997.55
2023-02-24T08:04:33.252Z,997.53
2023-02-24T08:05:32.853Z,997.48
2023-02-24T08:06:32.781Z,997.53
2023-02-24T08:07:32.827Z,997.47
2023-02-24T08:08:32.742Z,997.43
2023-02-24T08:09:32.920Z,997.35
2023-02-24T08:10:32.732Z,997.36
2023-02-24T08:11:32.710Z,997.28
2023-02-24T08:12:32.708Z,997.29
2023-02-24T08:13:32.681Z,997.33
2023-02-24T08:14:32.874Z,997.31
2023-02-24T08:15:32.698Z,997.24
2023-02-24T08:16:32.649Z,997.25
2023-02-24T08:17:32.630Z,997.31
2023-02-24T08:18:32.630Z,997.19
2023-02-24T08:19:32.857Z,997.20
2023-02-24T08:20:32.644Z,997.18
2023-02-24T08:21:32.586Z,997.18
2023-02-24T08:22:32.569Z,997.13
2023-02-24T08:23:32.560Z,997.13
2023-02-24T08:24:32.541Z,997.11
2023-02-24T08:25:32.712Z,997.09
2023-02-24T08:26:32.583Z,997.17
2023-02-24T08:27:32.537Z,997.15
2023-02-24T08:28:32.502Z,997.07
2023-02-24T08:29:32.492Z,997.11
2023-02-24T08:30:32.678Z,997.08
2023-02-24T08:31:32.571Z,997.03
2023-02-24T08:32:32.570Z,997.05
2023-02-24T08:33:32.437Z,997.06
2023-02-24T08:34:32.429Z,997.02
2023-02-24T08:35:32.579Z,997.06
2023-02-24T08:36:32.395Z,997.09
2023-02-24T08:37:32.378Z,997.04
2023-02-24T08:38:32.373Z,996.96
2023-02-24T08:39:32.358Z,997.03
2023-02-24T08:40:32.523Z,997.06
2023-02-24T08:41:32.336Z,997.06
2023-02-24T08:42:32.318Z,997.07
2023-02-24T08:43:32.304Z,997.09
2023-02-24T08:44:32.298Z,997.05
2023-02-24T08:45:32.656Z,996.97
2023-02-24T08:46:32.312Z,997.03
2023-02-24T08:47:32.256Z,997.00
2023-02-24T08:48:32.254Z,996.95
2023-02-24T08:49:32.244Z,996.85
2023-02-24T08:50:32.215Z,996.83
2023-02-24T08:51:32.389Z,996.85
2023-02-24T08:52:32.461Z,996.84
2023-02-24T08:53:32.194Z,996.85
2023-02-24T08:54:32.232Z,996.83
2023-02-24T08:55:32.153Z,996.77
2023-02-24T08:56:32.320Z,996.83
2023-02-24T08:57:32.137Z,996.78
2023-02-24T08:58:32.127Z,996.78
2023-02-24T08:59:32.116Z,996.74
2023-02-24T09:00:32.133Z,996.72
2023-02-24T09:01:32.270Z,996.72
2023-02-24T09:02:32.067Z,996.75
2023-02-24T09:03:32.065Z,996.69
2023-02-24T09:04:32.057Z,996.75
2023-02-24T09:05:32.029Z,996.67
2023-02-24T09:06:32.187Z,996.67
2023-02-24T09:07:32.011Z,996.75
2023-02-24T09:08:31.997Z,996.75
2023-02-24T09:09:31.986Z,996.64
2023-02-24T09:10:31.979Z,996.68
2023-02-24T09:11:32.022Z,996.73
2023-02-24T09:12:31.957Z,996.61
2023-02-24T09:13:31.941Z,996.66
2023-02-24T09:14:31.933Z,996.61
2023-02-24T09:15:31.919Z,996.62
2023-02-24T09:16:31.924Z,996.58
2023-02-24T09:17:31.907Z,996.64
2023-02-24T09:18:32.048Z,996.55
2023-02-24T09:19:31.866Z,996.55
2023-02-24T09:20:31.835Z,996.55
2023-02-24T09:21:31.832Z,996.48
2023-02-24T09:22:31.876Z,996.54
2023-02-24T09:23:31.812Z,996.49
2023-02-24T09:24:31.784Z,996.54
2023-02-24T09:25:31.774Z,996.55
2023-02-24T09:26:31.759Z,996.54
2023-02-24T09:27:31.920Z,996.50
2023-02-24T09:28:31.919Z,996.49
2023-02-24T09:29:31.723Z,996.54
2023-02-24T09:30:31.776Z,996.55
2023-02-24T09:31:31.813Z,996.49
2023-02-24T09:32:31.809Z,996.56
2023-02-24T09:33:31.848Z,996.45
2023-02-24T09:34:31.829Z,996.44
2023-02-24T09:35:31.656Z,996.43
2023-02-24T09:36:31.639Z,996.37
2023-02-24T09:37:31.662Z,996.42
2023-02-24T09:38:31.620Z,996.38
2023-02-24T09:39:31.778Z,996.29
2023-02-24T09:40:31.595Z,996.28
2023-02-24T09:41:32.343Z,996.28
2023-02-24T09:42:31.569Z,996.26
2023-02-24T09:43:31.551Z,996.28
2023-02-24T09:44:31.748Z,996.32
2023-02-24T09:45:31.809Z,996.22
2023-02-24T09:46:31.611Z,996.19
2023-02-24T09:47:31.678Z,996.16
2023-02-24T09:48:31.477Z,996.19
2023-02-24T09:49:31.476Z,996.09
2023-02-24T09:50:59.589Z,996.12
2023-02-24T09:51:32.630Z,996.11
2023-02-24T09:52:31.605Z,996.09
2023-02-24T09:53:31.416Z,996.14
2023-02-24T09:54:31.393Z,996.18
2023-02-24T09:55:31.404Z,996.09
2023-02-24T09:56:31.394Z,996.09
2023-02-24T09:57:31.687Z,996.06
2023-02-24T09:58:43.090Z,996.06
2023-02-24T09:59:32.347Z,995.98
2023-02-24T10:00:31.346Z,995.95
2023-02-24T10:01:31.554Z,995.95
2023-02-24T10:02:31.363Z,996.03
2023-02-24T10:03:31.302Z,995.98
2023-02-24T10:04:31.282Z,995.96
2023-02-24T10:05:31.254Z,995.93
2023-02-24T10:06:31.422Z,995.87
2023-02-24T10:07:31.242Z,995.93
2023-02-24T10:08:31.391Z,995.87
2023-02-24T10:09:31.226Z,995.96
2023-02-24T10:10:31.206Z,995.91
2023-02-24T10:11:31.187Z,995.86
2023-02-24T10:12:31.169Z,995.93
2023-02-24T10:13:31.169Z,995.80
2023-02-24T10:14:42.638Z,995.83
2023-02-24T10:15:32.227Z,995.78
2023-02-24T10:16:31.144Z,995.87
2023-02-24T10:17:31.930Z,995.81
2023-02-24T10:18:31.094Z,995.68
2023-02-24T10:19:31.270Z,995.70
2023-02-24T10:20:31.349Z,995.69
2023-02-24T10:21:31.084Z,995.81
2023-02-24T10:22:31.044Z,995.67
2023-02-24T10:23:31.040Z,995.77
2023-02-24T10:24:31.189Z,995.66
2023-02-24T10:25:31.007Z,995.65
2023-02-24T10:26:31.006Z,995.66
2023-02-24T10:27:30.993Z,995.65
2023-02-24T10:28:31.012Z,995.62
2023-02-24T10:29:31.130Z,995.66
2023-02-24T10:30:31.041Z,995.62
2023-02-24T10:31:31.183Z,995.55
2023-02-24T10:32:30.974Z,995.54
2023-02-24T10:33:30.909Z,995.53
2023-02-24T10:34:30.904Z,995.53
2023-02-24T10:35:30.886Z,995.52
2023-02-24T10:36:31.060Z,995.47
2023-02-24T10:37:30.859Z,995.48
2023-02-24T10:38:30.861Z,995.43
2023-02-24T10:39:30.826Z,995.49
2023-02-24T10:40:30.808Z,995.52
2023-02-24T10:41:31.010Z,995.48
2023-02-24T10:42:30.821Z,995.45
2023-02-24T10:43:30.832Z,995.41
2023-02-24T10:44:30.790Z,995.46
2023-02-24T10:45:34.744Z,995.43
2023-02-24T10:46:40.654Z,995.46
2023-02-24T10:47:31.778Z,995.41
2023-02-24T10:48:41.330Z,995.41
2023-02-24T10:49:31.702Z,995.46
2023-02-24T10:50:32.457Z,995.50
2023-02-24T10:51:30.697Z,995.42
2023-02-24T10:52:30.663Z,995.39
2023-02-24T10:53:30.644Z,995.42
2023-02-24T10:54:30.818Z,995.36
2023-02-24T10:55:30.648Z,995.32
2023-02-24T10:56:30.825Z,995.29
2023-02-24T10:57:30.610Z,995.33
2023-02-24T10:58:30.585Z,995.30
2023-02-24T10:59:30.808Z,995.29
2023-02-24T11:00:30.567Z,995.25
2023-02-24T11:01:30.604Z,995.20
2023-02-24T11:02:30.747Z,995.13
2023-02-24T11:03:32.974Z,995.23
2023-02-24T11:04:30.521Z,995.22
2023-02-24T11:05:30.591Z,995.16
2023-02-24T11:06:30.573Z,995.14
2023-02-24T11:07:30.771Z,995.14
2023-02-24T11:08:30.547Z,995.15
2023-02-24T11:09:30.516Z,995.08
2023-02-24T11:10:30.415Z,995.03
2023-02-24T11:11:30.612Z,995.03
2023-02-24T11:12:30.495Z,994.98
2023-02-24T11:13:30.394Z,994.94
2023-02-24T11:14:30.378Z,995.00
2023-02-24T11:15:30.406Z,994.89
2023-02-24T11:16:30.535Z,994.91
2023-02-24T11:17:30.372Z,994.90
2023-02-24T11:18:30.352Z,994.89
2023-02-24T11:19:30.303Z,994.86
2023-02-24T11:20:46.089Z,994.90
2023-02-24T11:21:31.608Z,994.82
2023-02-24T11:22:30.271Z,994.91
2023-02-24T11:23:30.250Z,994.82
2023-02-24T11:24:30.243Z,994.82
2023-02-24T11:25:30.251Z,994.81
2023-02-24T11:26:30.257Z,994.76
2023-02-24T11:27:30.200Z,994.73
2023-02-24T11:28:30.192Z,994.73
2023-02-24T11:29:30.189Z,994.68
2023-02-24T11:30:30.218Z,994.66
2023-02-24T11:31:30.445Z,994.72
2023-02-24T11:32:30.453Z,994.67
2023-02-24T11:33:30.128Z,994.68
2023-02-24T11:34:30.311Z,994.62
2023-02-24T11:35:30.116Z,994.56
2023-02-24T11:36:30.096Z,994.49
2023-02-24T11:37:30.080Z,994.51
2023-02-24T11:38:30.079Z,994.63
2023-02-24T11:39:30.245Z,994.54
2023-02-24T11:40:30.229Z,994.45
2023-02-24T11:41:30.041Z,994.46
2023-02-24T11:42:30.016Z,994.48
2023-02-24T11:43:30.009Z,994.45
2023-02-24T11:44:29.989Z,994.38
2023-02-24T11:45:30.168Z,994.51
2023-02-24T11:46:30.011Z,994.43
2023-02-24T11:47:29.965Z,994.49
2023-02-24T11:48:29.937Z,994.47
2023-02-24T11:49:30.117Z,994.36
2023-02-24T11:50:29.924Z,994.30
2023-02-24T11:51:30.076Z,994.28
2023-02-24T11:52:29.898Z,994.33
2023-02-24T11:53:29.875Z,994.39
2023-02-24T11:54:29.854Z,994.29
2023-02-24T11:55:29.852Z,994.29
2023-02-24T11:56:30.036Z,994.33
2023-02-24T11:57:30.187Z,994.28
2023-02-24T11:58:29.831Z,994.24
2023-02-24T11:59:29.814Z,994.22
2023-02-24T12:00:29.786Z,994.19
2023-02-24T12:01:30.131Z,994.20
2023-02-24T12:02:29.952Z,994.27
2023-02-24T12:03:29.757Z,994.21
2023-02-24T12:04:29.768Z,994.17
2023-02-24T12:05:29.763Z,994.19
2023-02-24T12:06:29.722Z,994.13
2023-02-24T12:07:29.903Z,994.18
2023-02-24T12:08:29.691Z,994.13
2023-02-24T12:09:29.676Z,994.10
2023-02-24T12:10:29.663Z,994.06
2023-02-24T12:11:29.652Z,994.07
2023-02-24T12:12:29.827Z,994.05
2023-02-24T12:13:29.638Z,994.05
2023-02-24T12:14:29.610Z,994.00
2023-02-24T12:15:29.602Z,994.01
2023-02-24T12:16:29.613Z,993.97
2023-02-24T12:17:29.741Z,993.98
2023-02-24T12:18:29.551Z,993.97
2023-02-24T12:19:29.559Z,993.93
2023-02-24T12:20:29.917Z,993.88
2023-02-24T12:21:29.809Z,993.86